Time;durP1;ratioP1;P1;durP2;ratioP2;P2;SDS_P1;SDS_P2;PMS_P1;PMS_P2;Temp;Humidity;BMP_temperature;BMP_pressure;BME280_temperature;BME280_humidity;BME280_pressure;Samples;Min_cycle;Max_cycle;Signal;HPM_P1;HPM_P2
2020/12/17 00:00:34;;;;;;;2.37;2.27;;;;;;;18.58;48.71;100815.47;5071923;28;20271;-60
2020/12/17 00:03:00;;;;;;;2.40;2.20;;;;;;;18.58;48.67;100820.91;5071015;28;20180;-63
2020/12/17 00:05:27;;;;;;;2.40;2.20;;;;;;;18.56;48.49;100816.66;5070654;28;20587;-63
2020/12/17 00:07:53;;;;;;;2.50;2.30;;;;;;;18.55;48.50;100821.22;5071767;28;20837;-60
2020/12/17 00:10:19;;;;;;;2.50;2.30;;;;;;;18.50;48.56;100823.59;5071658;28;20180;-60
2020/12/17 00:12:46;;;;;;;2.60;2.40;;;;;;;18.46;48.56;100819.53;5071745;28;20195;-60
2020/12/17 00:15:19;;;;;;;2.37;2.20;;;;;;;18.46;48.84;100815.97;5071726;28;20195;-60
2020/12/17 00:17:50;;;;;;;2.30;2.10;;;;;;;18.45;48.79;100812.38;5071624;28;20204;-60
2020/12/17 00:20:20;;;;;;;2.27;2.07;;;;;;;18.42;48.89;100810.00;5071644;28;20550;-60
2020/12/17 00:22:46;;;;;;;2.00;1.90;;;;;;;18.40;48.42;100812.03;5070827;28;20241;-58
2020/12/17 00:25:13;;;;;;;2.57;2.37;;;;;;;18.34;49.00;100807.28;5054295;28;20195;-68
2020/12/17 00:27:39;;;;;;;2.43;2.23;;;;;;;18.31;48.60;100803.03;5071708;28;20677;-68
2020/12/17 00:30:06;;;;;;;2.40;2.20;;;;;;;18.30;48.93;100805.91;5071937;28;20198;-68
2020/12/17 00:32:33;;;;;;;2.30;2.20;;;;;;;18.26;48.85;100807.25;5071641;28;20202;-68
2020/12/17 00:34:59;;;;;;;2.40;2.20;;;;;;;18.26;48.92;100799.97;5071578;28;20679;-58
2020/12/17 00:37:34;;;;;;;2.27;2.07;;;;;;;18.28;49.03;100805.22;5071342;28;20646;-63
2020/12/17 00:40:01;;;;;;;2.40;2.20;;;;;;;18.28;48.63;100803.34;5071388;28;20183;-59
2020/12/17 00:42:27;;;;;;;2.20;2.10;;;;;;;18.29;48.83;100798.78;5070624;28;20273;-59
2020/12/17 00:44:53;;;;;;;2.10;2.00;;;;;;;18.31;49.06;100807.59;5065649;28;20191;-59
2020/12/17 00:47:19;;;;;;;2.17;2.00;;;;;;;18.30;49.08;100811.31;5071020;28;20212;-68
2020/12/17 00:49:45;;;;;;;2.20;2.10;;;;;;;18.29;48.82;100815.03;5071249;28;20515;-59
2020/12/17 00:52:11;;;;;;;2.00;1.80;;;;;;;18.30;49.18;100819.44;5071245;28;20187;-60
2020/12/17 00:54:41;;;;;;;2.27;2.13;;;;;;;18.31;48.93;100815.72;5071284;28;20561;-60
2020/12/17 00:57:07;;;;;;;2.20;2.00;;;;;;;18.32;49.16;100814.72;5070111;28;20283;-58
2020/12/17 00:59:33;;;;;;;2.20;2.00;;;;;;;18.33;49.01;100809.13;5070010;28;20219;-59
2020/12/17 01:01:59;;;;;;;2.27;2.10;;;;;;;18.34;49.10;100818.94;5070028;28;20608;-62
2020/12/17 01:04:26;;;;;;;2.17;1.93;;;;;;;18.33;49.15;100816.41;5071127;28;20206;-62
2020/12/17 01:06:52;;;;;;;2.00;1.90;;;;;;;18.34;49.43;100824.38;5071051;28;20215;-63
2020/12/17 01:09:18;;;;;;;2.23;2.03;;;;;;;18.34;48.81;100824.38;5071698;28;20268;-62
2020/12/17 01:11:44;;;;;;;2.03;1.93;;;;;;;18.35;49.35;100822.50;5075352;28;20180;-62
2020/12/17 01:14:10;;;;;;;2.00;1.90;;;;;;;18.34;49.18;100818.94;5075119;28;20195;-57
2020/12/17 01:16:36;;;;;;;2.00;1.90;;;;;;;18.32;48.97;100820.97;5075036;28;20562;-68
2020/12/17 01:19:02;;;;;;;2.13;1.93;;;;;;;18.32;49.31;100820.97;5074856;28;20203;-69
2020/12/17 01:21:28;;;;;;;2.00;1.90;;;;;;;18.31;48.90;100819.28;5074790;28;20233;-63
2020/12/17 01:23:54;;;;;;;1.87;1.77;;;;;;;18.31;49.01;100824.72;5075202;28;20676;-63
2020/12/17 01:26:20;;;;;;;2.30;2.10;;;;;;;18.31;49.13;100829.28;5074733;28;20239;-60
2020/12/17 01:28:46;;;;;;;2.30;1.87;;;;;;;18.29;49.21;100821.31;5074733;28;20218;-60
2020/12/17 01:31:13;;;;;;;2.20;1.80;;;;;;;18.30;49.16;100819.44;5074674;28;20637;-60
2020/12/17 01:33:39;;;;;;;1.90;1.80;;;;;;;18.29;48.77;100817.75;5074480;28;20215;-61
2020/12/17 01:36:06;;;;;;;1.70;1.60;;;;;;;18.25;48.80;100813.69;5074595;28;20245;-60
2020/12/17 01:38:33;;;;;;;2.00;1.90;;;;;;;18.26;49.18;100815.38;5074428;28;20302;-60
2020/12/17 01:40:59;;;;;;;2.03;1.93;;;;;;;18.25;48.63;100825.38;5074675;28;20263;-61
2020/12/17 01:43:25;;;;;;;2.13;2.00;;;;;;;18.25;49.03;100825.38;5074519;28;20241;-61
2020/12/17 01:45:52;;;;;;;1.80;1.70;;;;;;;18.22;49.01;100831.13;5074464;28;20214;-59
2020/12/17 01:48:18;;;;;;;1.93;1.77;;;;;;;18.21;48.93;100834.81;5074347;28;20670;-69
2020/12/17 01:50:45;;;;;;;1.80;1.70;;;;;;;18.21;49.33;100834.81;5073402;28;20260;-60
2020/12/17 01:53:11;;;;;;;1.87;1.77;;;;;;;18.20;48.91;100832.25;5074382;28;20226;-60
2020/12/17 01:55:37;;;;;;;1.90;1.80;;;;;;;18.24;49.06;100828.25;5074290;28;20241;-68
2020/12/17 01:58:04;;;;;;;1.83;1.73;;;;;;;18.30;49.00;100833.00;5073283;28;20225;-59
2020/12/17 02:00:37;;;;;;;1.60;1.50;;;;;;;18.36;49.35;100829.63;5073366;28;20535;-59
2020/12/17 02:03:04;;;;;;;1.70;1.60;;;;;;;18.43;48.96;100825.25;5073052;28;20209;-63
2020/12/17 02:05:30;;;;;;;1.83;1.73;;;;;;;18.50;49.32;100818.16;5073994;28;20604;-63
2020/12/17 02:08:00;;;;;;;1.50;1.40;;;;;;;18.58;49.01;100820.91;5074026;28;20223;-64
2020/12/17 02:10:27;;;;;;;1.73;1.63;;;;;;;18.67;49.04;100821.78;5074000;28;20183;-61
2020/12/17 02:12:53;;;;;;;1.70;1.60;;;;;;;18.76;48.94;100817.25;5073969;28;20194;-60
2020/12/17 02:15:19;;;;;;;1.63;1.53;;;;;;;18.81;49.37;100820.28;5073940;28;20275;-61
2020/12/17 02:17:47;;;;;;;1.60;1.50;;;;;;;18.87;49.18;100825.03;5073864;28;20665;-68
2020/12/17 02:20:13;;;;;;;1.60;1.50;;;;;;;18.92;49.00;100822.66;5073248;28;20187;-69
2020/12/17 02:22:40;;;;;;;1.90;1.80;;;;;;;18.96;49.15;100824.06;5073950;28;20595;-63
2020/12/17 02:25:07;;;;;;;1.50;1.40;;;;;;;18.99;49.14;100824.56;5074007;28;20221;-68
2020/12/17 02:27:33;;;;;;;1.63;1.53;;;;;;;19.03;48.98;100825.06;5073424;28;20302;-68
2020/12/17 02:30:00;;;;;;;1.53;1.43;;;;;;;19.05;48.75;100820.31;5073485;28;20183;-60
2020/12/17 02:32:26;;;;;;;1.60;1.50;;;;;;;19.06;48.79;100811.16;5073021;28;20187;-60
2020/12/17 02:34:52;;;;;;;1.73;1.63;;;;;;;19.06;48.62;100803.03;5073536;28;20219;-59
2020/12/17 02:37:18;;;;;;;1.60;1.50;;;;;;;19.07;48.80;100806.59;5072379;28;20209;-59
2020/12/17 02:39:44;;;;;;;1.43;1.33;;;;;;;19.06;48.54;100808.44;5073436;28;20332;-58
2020/12/17 02:42:10;;;;;;;1.63;1.53;;;;;;;19.05;48.67;100805.91;5073302;28;20184;-59
2020/12/17 02:44:36;;;;;;;1.50;1.40;;;;;;;19.02;48.86;100813.38;5072280;28;20655;-68
2020/12/17 02:47:02;;;;;;;1.60;1.50;;;;;;;19.01;48.51;100819.81;5073046;28;20219;-59
2020/12/17 02:49:28;;;;;;;1.63;1.53;;;;;;;19.00;48.51;100820.00;5073130;28;20215;-59
2020/12/17 02:51:54;;;;;;;1.50;1.43;;;;;;;18.97;48.73;100810.31;5073302;28;20245;-58
2020/12/17 02:54:20;;;;;;;1.40;1.30;;;;;;;18.94;48.39;100809.81;5073293;28;20270;-58
2020/12/17 02:56:46;;;;;;;1.40;1.30;;;;;;;18.94;48.38;100807.94;5072163;28;20252;-68
2020/12/17 02:59:12;;;;;;;1.60;1.50;;;;;;;18.92;48.57;100811.81;5072851;28;20203;-67
2020/12/17 03:01:38;;;;;;;1.53;1.43;;;;;;;18.89;48.41;100804.88;5072034;28;20523;-63
2020/12/17 03:04:05;;;;;;;1.20;1.20;;;;;;;18.84;48.47;100803.69;5073034;28;20195;-63
2020/12/17 03:06:31;;;;;;;1.53;1.43;;;;;;;18.83;48.25;100799.28;5073045;28;20210;-63
2020/12/17 03:08:57;;;;;;;1.40;1.30;;;;;;;18.80;48.38;100799.63;5072890;28;20602;-62
2020/12/17 03:11:23;;;;;;;1.60;1.50;;;;;;;18.77;48.40;100808.94;5072934;28;20278;-63
2020/12/17 03:13:49;;;;;;;1.57;1.47;;;;;;;18.74;48.73;100803.00;5072785;28;20187;-63
2020/12/17 03:16:15;;;;;;;1.60;1.50;;;;;;;18.69;48.65;100804.34;5073005;28;20176;-68
2020/12/17 03:18:41;;;;;;;1.43;1.33;;;;;;;18.65;48.40;100794.84;5071622;28;20247;-63
2020/12/17 03:21:07;;;;;;;1.47;1.37;;;;;;;18.62;48.48;100800.59;5072504;28;20192;-60
2020/12/17 03:23:33;;;;;;;1.50;1.40;;;;;;;18.55;48.71;100798.69;5072498;28;20202;-67
2020/12/17 03:26:00;;;;;;;1.50;1.40;;;;;;;18.53;48.93;100812.41;5072416;28;20754;-67
2020/12/17 03:28:26;;;;;;;1.20;1.20;;;;;;;18.50;48.65;100796.50;5072279;28;20203;-63
2020/12/17 03:30:52;;;;;;;1.53;1.43;;;;;;;18.47;48.87;100801.41;5072527;28;20256;-60
2020/12/17 03:33:18;;;;;;;1.50;1.40;;;;;;;18.45;48.92;100806.94;5071536;28;20191;-68
2020/12/17 03:35:44;;;;;;;1.50;1.40;;;;;;;18.49;48.84;100796.66;5071307;28;20256;-68
2020/12/17 03:38:10;;;;;;;1.30;1.30;;;;;;;18.49;48.57;100794.78;5071387;28;20214;-59
2020/12/17 03:40:36;;;;;;;1.50;1.40;;;;;;;18.50;48.53;100790.22;5072352;28;20262;-67
2020/12/17 03:43:02;;;;;;;1.40;1.30;;;;;;;18.49;48.63;100794.78;5072166;28;20241;-68
2020/12/17 03:45:28;;;;;;;1.23;1.20;;;;;;;18.51;48.65;100786.50;5072195;28;20269;-63
2020/12/17 03:47:54;;;;;;;1.40;1.30;;;;;;;18.51;48.94;100789.19;5071057;28;20239;-60
2020/12/17 03:50:20;;;;;;;1.50;1.40;;;;;;;18.53;48.71;100784.47;5072105;28;20254;-59
2020/12/17 03:52:46;;;;;;;1.50;1.40;;;;;;;18.53;49.17;100776.31;5072106;28;20608;-59
2020/12/17 03:55:12;;;;;;;1.20;1.20;;;;;;;18.53;48.66;100779.03;5072069;28;20195;-60
2020/12/17 03:57:39;;;;;;;1.50;1.40;;;;;;;18.55;49.07;100777.84;5071699;28;20199;-62
2020/12/17 04:00:05;;;;;;;1.40;1.30;;;;;;;18.54;48.79;100778.88;5071907;28;20180;-64
2020/12/17 04:02:31;;;;;;;1.30;1.27;;;;;;;18.53;48.86;100785.31;5072293;28;20191;-60
2020/12/17 04:04:57;;;;;;;1.47;1.40;;;;;;;18.53;49.07;100785.31;5071799;28;20194;-60
2020/12/17 04:07:23;;;;;;;1.50;1.40;;;;;;;18.53;48.99;100784.47;5071645;28;20207;-60
2020/12/17 04:09:50;;;;;;;1.23;1.23;;;;;;;18.51;48.88;100781.06;5071845;28;20187;-60
2020/12/17 04:12:16;;;;;;;1.17;1.17;;;;;;;18.50;48.75;100782.94;5070684;28;20192;-60
2020/12/17 04:14:42;;;;;;;1.43;1.33;;;;;;;18.48;48.60;100784.97;5071641;28;20188;-60
2020/12/17 04:17:08;;;;;;;1.40;1.30;;;;;;;18.47;48.77;100785.13;5071743;28;20187;-67
2020/12/17 04:19:34;;;;;;;1.50;1.40;;;;;;;18.48;48.68;100782.25;5071911;28;20187;-67
2020/12/17 04:22:00;;;;;;;1.43;1.20;;;;;;;18.44;48.95;100789.00;5071641;28;20651;-63
2020/12/17 04:24:26;;;;;;;1.10;1.10;;;;;;;18.43;48.68;100790.00;5071610;28;20180;-63
2020/12/17 04:26:52;;;;;;;1.20;1.10;;;;;;;18.44;48.56;100798.97;5071407;28;20215;-64
2020/12/17 04:29:19;;;;;;;1.30;1.20;;;;;;;18.40;48.42;100796.63;5071504;28;20298;-68
2020/12/17 04:31:45;;;;;;;1.57;1.47;;;;;;;18.40;48.58;100801.19;5071644;28;20223;-59
2020/12/17 04:34:11;;;;;;;1.20;1.20;;;;;;;18.38;48.86;100801.34;5070668;28;20191;-59
2020/12/17 04:36:37;;;;;;;1.40;1.33;;;;;;;18.38;48.66;100808.63;5071515;28;20226;-64
2020/12/17 04:39:04;;;;;;;1.40;1.30;;;;;;;18.36;48.83;100805.25;5070371;28;20207;-64
2020/12/17 04:41:31;;;;;;;1.10;1.10;;;;;;;18.35;48.90;100811.66;5070362;28;20780;-64
2020/12/17 04:43:57;;;;;;;1.33;1.23;;;;;;;18.33;48.76;100808.28;5071085;28;20647;-59
2020/12/17 04:46:24;;;;;;;1.50;1.40;;;;;;;18.31;48.81;100816.56;5071281;28;20639;-59
2020/12/17 04:48:52;;;;;;;1.30;1.30;;;;;;;18.32;48.60;100815.56;5070285;28;20230;-58
2020/12/17 04:51:18;;;;;;;1.37;1.27;;;;;;;18.29;48.50;100809.63;5071823;28;20662;-69
2020/12/17 04:53:46;;;;;;;1.20;1.20;;;;;;;18.27;48.63;100817.06;5071272;28;20180;-69
2020/12/17 04:56:16;;;;;;;1.33;1.30;;;;;;;18.24;49.09;100818.25;5071222;28;20632;-68
2020/12/17 04:58:49;;;;;;;1.10;1.10;;;;;;;18.24;48.99;100825.53;5070488;28;20215;-60
2020/12/17 05:01:16;;;;;;;1.20;1.20;;;;;;;18.24;48.78;100822.81;5071370;28;20191;-59
2020/12/17 05:03:46;;;;;;;1.17;1.17;;;;;;;18.28;49.27;100826.91;5053816;28;20193;-60
2020/12/17 05:06:18;;;;;;;1.23;1.20;;;;;;;18.34;48.97;100829.78;5071102;28;20251;-68
2020/12/17 05:08:44;;;;;;;1.00;1.00;;;;;;;18.43;48.95;100827.94;5070233;28;20597;-69
2020/12/17 05:11:10;;;;;;;1.10;1.10;;;;;;;18.50;49.21;100826.31;5071164;28;20198;-68
2020/12/17 05:13:36;;;;;;;1.10;1.10;;;;;;;18.56;49.22;100825.63;5070306;28;20222;-64
2020/12/17 05:16:02;;;;;;;1.10;1.10;;;;;;;18.63;49.02;100820.41;5071017;28;20180;-60
2020/12/17 05:18:28;;;;;;;1.27;1.17;;;;;;;18.69;48.89;100836.91;5070947;28;20199;-59
2020/12/17 05:20:55;;;;;;;1.33;1.23;;;;;;;18.75;49.20;100834.53;5071024;28;20183;-64
2020/12/17 05:23:22;;;;;;;1.10;1.10;;;;;;;18.80;49.13;100835.72;5070203;28;20198;-64
2020/12/17 05:25:52;;;;;;;1.10;1.10;;;;;;;18.85;49.14;100832.50;5070989;28;20205;-64
2020/12/17 05:28:18;;;;;;;1.20;1.20;;;;;;;18.87;48.75;100839.44;5069988;28;20279;-64
2020/12/17 05:30:44;;;;;;;1.10;1.10;;;;;;;18.90;48.95;100841.81;5071009;28;20190;-58
2020/12/17 05:33:10;;;;;;;1.13;1.13;;;;;;;18.92;48.79;100853.34;5070901;28;20573;-57
2020/12/17 05:35:37;;;;;;;1.00;1.00;;;;;;;18.94;48.73;100855.94;5069879;28;20195;-57
2020/12/17 05:38:04;;;;;;;1.20;1.20;;;;;;;18.95;48.87;100860.34;5070739;28;20207;-56
2020/12/17 05:40:43;;;;;;;1.30;1.20;;;;;;;18.94;48.55;100870.34;5070842;28;20218;-66
2020/12/17 05:43:11;;;;;;;1.20;1.20;;;;;;;18.96;48.87;100867.47;5070952;28;20262;-68
2020/12/17 05:45:37;;;;;;;1.30;1.20;;;;;;;18.94;48.81;100880.34;5070657;28;20191;-58
2020/12/17 05:48:13;;;;;;;1.23;1.13;;;;;;;18.94;48.52;100881.19;5070484;28;20238;-59
2020/12/17 05:50:48;;;;;;;1.23;1.00;;;;;;;18.93;48.57;100884.91;5070794;28;20199;-68
2020/12/17 05:53:15;;;;;;;0.93;0.93;;;;;;;18.92;48.58;100887.75;5070900;28;20217;-58
2020/12/17 05:55:42;;;;;;;1.10;1.10;;;;;;;18.91;48.58;100892.34;5071696;28;20757;-60
2020/12/17 05:58:09;;;;;;;1.10;1.10;;;;;;;18.88;48.60;100894.53;5074221;28;20230;-60
2020/12/17 06:00:36;;;;;;;1.00;1.00;;;;;;;18.87;48.63;100896.41;5056703;28;20195;-60
2020/12/17 06:03:02;;;;;;;1.00;1.00;;;;;;;18.85;48.40;100908.44;5056767;28;20192;-60
2020/12/17 06:05:28;;;;;;;1.23;1.20;;;;;;;18.83;48.33;100911.31;5074109;28;20201;-60
2020/12/17 06:07:58;;;;;;;1.00;1.00;;;;;;;18.82;48.63;100916.91;5073988;28;20215;-60
2020/12/17 06:10:25;;;;;;;1.00;1.00;;;;;;;18.80;48.75;100921.66;5074071;28;20188;-60
2020/12/17 06:12:56;;;;;;;1.10;1.10;;;;;;;18.76;48.36;100921.13;5073945;28;20205;-60
2020/12/17 06:15:29;;;;;;;1.10;1.10;;;;;;;18.77;48.37;100924.69;5074171;28;20199;-60
2020/12/17 06:17:57;;;;;;;1.03;1.03;;;;;;;18.74;48.40;100934.00;5073087;28;20290;-60
2020/12/17 06:20:24;;;;;;;0.90;0.90;;;;;;;18.72;48.59;100951.47;5073110;28;20191;-58
2020/12/17 06:22:53;;;;;;;1.00;1.00;;;;;;;18.69;48.70;100952.59;5073945;28;20187;-63
2020/12/17 06:25:19;;;;;;;1.10;1.10;;;;;;;18.61;48.78;100953.41;5073711;28;20180;-63
2020/12/17 06:27:47;;;;;;;1.00;1.00;;;;;;;18.57;48.73;100956.59;5073709;28;20246;-59
2020/12/17 06:30:16;;;;;;;1.20;1.10;;;;;;;18.47;48.36;100961.31;5073822;28;20195;-56
2020/12/17 06:32:42;;;;;;;1.10;1.10;;;;;;;18.46;48.79;100962.31;5056289;28;20180;-57
2020/12/17 06:35:29;;;;;;;1.10;1.10;;;;;;;18.46;48.78;100955.03;5073569;28;20213;-58
2020/12/17 06:37:58;;;;;;;1.10;1.10;;;;;;;18.50;48.42;100966.41;5066192;28;20531;-58
2020/12/17 06:40:28;;;;;;;1.00;1.00;;;;;;;18.48;48.97;100963.00;5039266;28;20188;-68
2020/12/17 06:42:54;;;;;;;1.20;1.20;;;;;;;18.49;48.80;100968.25;5073452;28;20791;-68
2020/12/17 06:45:28;;;;;;;1.07;1.07;;;;;;;18.51;49.00;100976.22;5073498;28;20259;-59
2020/12/17 06:47:54;;;;;;;1.33;0.93;;;;;;;18.51;49.07;100977.09;5055447;28;20314;-59
2020/12/17 06:50:28;;;;;;;1.00;1.00;;;;;;;18.54;48.65;100976.75;5073114;28;20305;-60
2020/12/17 06:53:04;;;;;;;1.03;1.00;;;;;;;18.53;48.67;100985.91;5068486;28;20200;-60
2020/12/17 06:55:42;;;;;;;0.90;0.90;;;;;;;18.53;49.10;100985.91;5071373;28;20226;-59
2020/12/17 06:58:23;;;;;;;0.97;0.97;;;;;;;18.51;48.77;100990.63;5072143;28;20217;-61
2020/12/17 07:00:53;;;;;;;0.90;0.90;;;;;;;18.53;49.08;100999.44;5070590;28;20223;-60
2020/12/17 07:03:48;;;;;;;1.00;1.00;;;;;;;18.50;49.08;101007.91;5071842;28;20183;-63
2020/12/17 07:06:15;;;;;;;1.07;1.07;;;;;;;18.52;48.97;101000.47;5072839;28;20265;-67
2020/12/17 07:08:42;;;;;;;1.00;1.00;;;;;;;18.52;49.00;101010.47;5072793;28;20211;-68
2020/12/17 07:11:34;;;;;;;0.90;0.90;;;;;;;18.48;48.65;101015.34;5072770;28;20187;-68
2020/12/17 07:14:01;;;;;;;1.03;1.00;;;;;;;18.49;49.12;101033.31;5071979;28;20270;-68
2020/12/17 07:16:27;;;;;;;1.00;1.00;;;;;;;18.45;48.74;101026.50;5072661;28;20240;-67
2020/12/17 07:19:12;;;;;;;1.03;1.03;;;;;;;18.45;48.93;101021.06;5072614;28;20214;-68
2020/12/17 07:21:40;;;;;;;1.20;1.10;;;;;;;18.44;48.88;101038.34;5072726;28;20194;-68
2020/12/17 07:24:06;;;;;;;0.90;0.90;;;;;;;18.41;48.80;101036.81;5071759;28;20188;-66
2020/12/17 07:26:32;;;;;;;0.90;0.90;;;;;;;18.40;48.71;101048.66;5072547;28;20216;-66
2020/12/17 07:28:58;;;;;;;0.93;0.93;;;;;;;18.39;48.73;101056.94;5072404;28;20207;-66
2020/12/17 07:31:25;;;;;;;1.00;1.00;;;;;;;18.37;48.77;101057.09;5072628;28;20282;-66
2020/12/17 07:33:52;;;;;;;1.00;1.00;;;;;;;18.37;48.97;101067.09;5071596;28;20203;-66
2020/12/17 07:36:18;;;;;;;1.00;1.00;;;;;;;18.36;48.72;101068.09;5072255;28;20201;-66
2020/12/17 07:38:44;;;;;;;0.80;0.80;;;;;;;18.34;48.68;101070.13;5072322;28;20199;-66
2020/12/17 07:41:28;;;;;;;0.90;0.90;;;;;;;18.33;48.82;101073.84;5071545;28;20332;-65
2020/12/17 07:43:55;;;;;;;1.00;1.00;;;;;;;18.30;49.08;101066.03;5072159;28;20195;-59
2020/12/17 07:46:34;;;;;;;1.30;1.20;;;;;;;18.28;49.19;101077.03;5072077;28;20208;-61
2020/12/17 07:49:02;;;;;;;1.00;1.00;;;;;;;18.29;49.13;101080.59;5071052;28;20237;-60
2020/12/17 07:51:31;;;;;;;0.90;0.90;;;;;;;18.29;49.26;101096.84;5072059;28;20183;-59
2020/12/17 07:54:01;;;;;;;1.00;1.00;;;;;;;18.29;49.23;101092.28;5072206;28;20187;-60
2020/12/17 07:56:27;;;;;;;1.00;1.00;;;;;;;18.29;49.45;101092.28;5072097;28;20266;-59
2020/12/17 07:58:53;;;;;;;0.80;0.80;;;;;;;18.31;49.07;101105.66;5070879;28;20211;-64
2020/12/17 08:01:19;;;;;;;1.03;1.00;;;;;;;18.30;49.35;101103.97;5071845;28;20183;-65
2020/12/17 08:03:50;;;;;;;0.90;0.90;;;;;;;18.32;48.93;101107.38;5070917;28;20277;-58
2020/12/17 08:06:20;;;;;;;0.80;0.80;;;;;;;18.32;49.90;101112.78;5071787;28;20735;-58
2020/12/17 08:08:47;;;;;;;0.83;0.83;;;;;;;18.32;49.49;101110.94;5070702;28;20547;-58
2020/12/17 08:11:13;;;;;;;1.17;1.00;;;;;;;18.34;49.64;101116.19;5071752;28;20184;-57
2020/12/17 08:13:39;;;;;;;1.03;1.03;;;;;;;18.35;49.95;101118.75;5070924;28;20188;-67
2020/12/17 08:16:05;;;;;;;1.10;1.10;;;;;;;18.34;49.66;101122.47;5071626;28;20524;-64
2020/12/17 08:18:36;;;;;;;1.73;1.10;;;;;;;18.33;49.85;101128.03;5071310;28;20246;-64
2020/12/17 08:21:07;;;;;;;1.40;1.30;;;;;;;18.30;50.24;101121.09;5071628;28;20226;-64
2020/12/17 08:23:34;;;;;;;1.40;1.30;;;;;;;18.30;50.13;101125.66;5071456;28;20244;-58
2020/12/17 08:26:01;;;;;;;1.30;1.20;;;;;;;18.28;50.47;101133.09;5071493;28;20211;-59
2020/12/17 08:28:35;;;;;;;1.30;1.20;;;;;;;18.28;50.54;101144.78;5071323;28;20226;-59
2020/12/17 08:31:09;;;;;;;1.20;1.10;;;;;;;18.27;50.62;101142.22;5071867;28;20257;-58
2020/12/17 08:33:38;;;;;;;1.93;1.40;;;;;;;18.23;50.88;101136.28;5071534;28;20596;-66
2020/12/17 08:36:09;;;;;;;1.47;1.37;;;;;;;18.24;50.63;101154.22;5070549;28;20748;-58
2020/12/17 08:38:35;;;;;;;1.70;1.30;;;;;;;18.24;50.92;101162.34;5070490;28;20214;-64
2020/12/17 08:41:03;;;;;;;1.93;1.30;;;;;;;18.27;51.22;101163.91;5070359;28;20200;-64
2020/12/17 08:43:35;;;;;;;1.97;1.50;;;;;;;18.29;51.33;101162.75;5070504;28;20325;-58
2020/12/17 08:46:01;;;;;;;1.40;1.30;;;;;;;18.33;51.13;101168.69;5070540;28;20191;-67
2020/12/17 08:48:28;;;;;;;1.33;1.20;;;;;;;18.37;50.74;101170.06;5053748;28;20550;-58
2020/12/17 08:50:55;;;;;;;1.40;1.30;;;;;;;18.41;50.86;101166.91;5070400;28;20210;-58
2020/12/17 08:53:27;;;;;;;2.03;1.30;;;;;;;18.48;51.34;101175.28;5070369;28;20179;-58
2020/12/17 08:56:04;;;;;;;1.50;1.40;;;;;;;18.57;51.30;101177.03;5071478;28;20191;-58
2020/12/17 08:58:30;;;;;;;1.30;1.20;;;;;;;18.65;51.10;101182.56;5053778;28;20512;-56
2020/12/17 09:00:56;;;;;;;1.50;1.30;;;;;;;18.72;51.24;101187.38;5070307;28;20187;-58
2020/12/17 09:03:23;;;;;;;1.30;1.20;;;;;;;18.78;50.79;101189.44;5053684;28;20233;-58
2020/12/17 09:06:02;;;;;;;1.27;1.17;;;;;;;18.84;50.74;101188.81;5070102;28;20194;-59
2020/12/17 09:08:28;;;;;;;1.87;1.43;;;;;;;18.88;50.73;101196.47;5071046;28;20207;-59
2020/12/17 09:10:54;;;;;;;1.47;1.37;;;;;;;18.93;50.92;101198.72;5071106;28;20541;-58
2020/12/17 09:13:22;;;;;;;1.30;1.20;;;;;;;18.94;50.92;101209.41;5071136;28;20183;-64
2020/12/17 09:15:58;;;;;;;1.10;1.10;;;;;;;18.98;50.45;101207.22;5071201;28;20215;-66
2020/12/17 09:18:24;;;;;;;1.37;1.30;;;;;;;18.99;50.59;101208.94;5070684;28;20203;-65
2020/12/17 09:21:11;;;;;;;1.13;1.03;;;;;;;19.00;50.61;101210.63;5071264;28;20237;-66
2020/12/17 09:23:38;;;;;;;1.50;1.40;;;;;;;19.02;50.66;101219.47;5071687;28;20222;-66
2020/12/17 09:26:14;;;;;;;1.50;1.20;;;;;;;19.02;50.16;101230.31;5072121;28;20318;-64
2020/12/17 09:29:12;;;;;;;1.20;1.10;;;;;;;19.00;50.48;101243.19;5071445;28;20272;-65
2020/12/17 09:31:38;;;;;;;1.30;1.20;;;;;;;18.99;50.62;101245.06;5065600;28;20206;-59
2020/12/17 09:34:12;;;;;;;1.17;1.17;;;;;;;18.98;50.17;101243.34;5074756;28;20191;-66
2020/12/17 09:36:40;;;;;;;1.13;1.13;;;;;;;18.97;50.13;101238.06;5074699;28;20214;-59
2020/12/17 09:39:07;;;;;;;1.30;1.20;;;;;;;18.94;50.12;101250.09;5074554;28;20203;-65
2020/12/17 09:41:34;;;;;;;1.17;1.07;;;;;;;18.92;50.10;101256.66;5074600;28;20673;-59
2020/12/17 09:44:00;;;;;;;1.40;1.30;;;;;;;18.90;50.18;101258.69;5074639;28;20184;-60
2020/12/17 09:46:39;;;;;;;1.17;1.10;;;;;;;18.87;49.93;101259.84;5074591;28;20261;-60
2020/12/17 09:49:07;;;;;;;1.37;1.27;;;;;;;18.84;49.77;101264.75;5074445;28;20540;-65
2020/12/17 09:51:33;;;;;;;1.00;1.00;;;;;;;18.81;49.88;101262.34;5074277;28;20297;-65
2020/12/17 09:54:02;;;;;;;0.97;0.97;;;;;;;18.79;50.08;101265.22;5074308;28;20190;-65
2020/12/17 09:56:28;;;;;;;1.00;1.00;;;;;;;18.76;49.83;101278.25;5074413;28;20544;-65
2020/12/17 09:58:55;;;;;;;1.17;1.07;;;;;;;18.73;50.06;101275.84;5073089;28;20637;-65
2020/12/17 10:01:22;;;;;;;1.70;1.07;;;;;;;18.68;50.05;101289.84;5074343;28;20194;-65
2020/12/17 10:03:48;;;;;;;1.10;1.10;;;;;;;18.64;50.09;101283.88;5074149;28;20225;-65
2020/12/17 10:06:14;;;;;;;0.93;0.93;;;;;;;18.59;50.19;101297.03;5073955;28;20557;-65
2020/12/17 10:08:40;;;;;;;2.20;1.30;;;;;;;18.52;50.00;101290.53;5074059;28;20278;-65
2020/12/17 10:11:06;;;;;;;1.17;1.10;;;;;;;18.49;49.82;101292.69;5073252;28;20187;-65
2020/12/17 10:13:32;;;;;;;1.10;1.10;;;;;;;18.46;49.87;101293.00;5073984;28;20635;-59
2020/12/17 10:15:58;;;;;;;1.60;1.33;;;;;;;18.42;50.47;101289.72;5073981;28;20631;-59
2020/12/17 10:18:24;;;;;;;1.23;1.17;;;;;;;18.38;49.95;101304.59;5073791;28;20211;-59
2020/12/17 10:20:51;;;;;;;1.10;1.10;;;;;;;18.38;49.91;101301.88;5073790;28;20187;-66
2020/12/17 10:23:17;;;;;;;1.13;1.03;;;;;;;18.40;50.14;101299.88;5073970;28;20521;-59
2020/12/17 10:25:43;;;;;;;1.20;1.20;;;;;;;18.41;49.98;101296.16;5073744;28;20175;-58
2020/12/17 10:28:09;;;;;;;1.20;1.10;;;;;;;18.42;50.27;101303.28;5073560;28;20215;-59
2020/12/17 10:30:35;;;;;;;1.53;1.20;;;;;;;18.43;50.00;101304.97;5073692;28;20270;-65
2020/12/17 10:33:01;;;;;;;1.00;1.00;;;;;;;18.45;50.16;101297.53;5073610;28;20528;-66
2020/12/17 10:35:27;;;;;;;1.50;1.20;;;;;;;18.49;49.84;101306.25;5073419;28;20275;-65
2020/12/17 10:37:53;;;;;;;1.10;1.00;;;;;;;18.50;50.14;101310.66;5072353;28;20207;-65
2020/12/17 10:40:19;;;;;;;1.20;1.20;;;;;;;18.54;50.10;101310.19;5073605;28;20188;-64
2020/12/17 10:42:45;;;;;;;1.97;1.00;;;;;;;18.55;50.37;101302.91;5073048;28;20517;-59
2020/12/17 10:45:11;;;;;;;1.10;0.80;;;;;;;18.57;50.50;101312.59;5072563;28;20239;-64
2020/12/17 10:47:38;;;;;;;0.80;0.80;;;;;;;18.57;50.02;101307.16;5066720;28;20694;-65
2020/12/17 10:50:04;;;;;;;1.20;1.10;;;;;;;18.57;50.30;101303.59;5072846;28;20199;-65
2020/12/17 10:52:30;;;;;;;1.10;1.03;;;;;;;18.57;50.31;101304.47;5071993;28;20600;-65
2020/12/17 10:54:56;;;;;;;0.90;0.90;;;;;;;18.56;49.92;101321.72;5067095;28;20187;-65
2020/12/17 10:57:23;;;;;;;1.10;1.00;;;;;;;18.55;50.06;101313.75;5072875;28;20210;-65
2020/12/17 10:59:49;;;;;;;1.17;1.10;;;;;;;18.55;50.02;101316.47;5073112;28;20263;-65
2020/12/17 11:02:15;;;;;;;1.07;1.07;;;;;;;18.50;50.08;101319.66;5071990;28;20504;-65
2020/12/17 11:04:41;;;;;;;1.00;1.00;;;;;;;18.50;50.17;101306.09;5072254;28;20701;-65
2020/12/17 11:07:08;;;;;;;1.10;1.10;;;;;;;18.50;49.87;101310.66;5072255;28;20268;-65
2020/12/17 11:09:34;;;;;;;1.07;1.07;;;;;;;18.50;49.93;101305.22;5065101;28;20188;-64
2020/12/17 11:12:00;;;;;;;1.00;0.90;;;;;;;18.42;49.82;101308.69;5072577;28;20198;-64
2020/12/17 11:14:26;;;;;;;1.10;1.00;;;;;;;18.39;50.15;101311.72;5072613;28;20192;-64
2020/12/17 11:16:52;;;;;;;0.97;0.97;;;;;;;18.42;49.98;101319.53;5072530;28;20199;-64
2020/12/17 11:19:18;;;;;;;1.00;1.00;;;;;;;18.38;50.14;101320.84;5072379;28;20215;-64
2020/12/17 11:21:45;;;;;;;0.90;0.90;;;;;;;18.37;49.86;101316.44;5072666;28;20245;-64
2020/12/17 11:24:11;;;;;;;1.00;1.00;;;;;;;18.35;49.71;101315.72;5072558;28;20184;-58
2020/12/17 11:26:43;;;;;;;0.90;0.90;;;;;;;18.31;49.77;101311.63;5072643;28;20598;-58